sensor_id;sensor_type;location;lat;lon;timestamp;P1;durP1;ratioP1;P2;durP2;ratioP2
5483;SDS011;2764;48.794;8.326;2023-08-20T00:00:27;15.50;;;11.83;;
5483;SDS011;2764;48.794;8.326;2023-08-20T00:01:29;21.13;;;12.67;;
5483;SDS011;2764;48.794;8.326;2023-08-20T00:02:31;14.00;;;11.33;;
5483;SDS011;2764;48.794;8.326;2023-08-20T00:03:34;15.27;;;11.13;;
5483;SDS011;2764;48.794;8.326;2023-08-20T00:04:36;12.80;;;11.43;;
5483;SDS011;2764;48.794;8.326;2023-08-20T00:05:38;14.50;;;11.50;;
5483;SDS011;2764;48.794;8.326;2023-08-20T00:06:40;16.70;;;12.30;;
5483;SDS011;2764;48.794;8.326;2023-08-20T00:07:44;18.40;;;9.70;;
5483;SDS011;2764;48.794;8.326;2023-08-20T00:08:46;19.03;;;11.07;;
5483;SDS011;2764;48.794;8.326;2023-08-20T00:09:48;19.63;;;12.10;;
5483;SDS011;2764;48.794;8.326;2023-08-20T00:10:51;11.83;;;10.63;;
5483;SDS011;2764;48.794;8.326;2023-08-20T00:11:53;12.87;;;11.57;;
5483;SDS011;2764;48.794;8.326;2023-08-20T00:12:55;16.13;;;11.83;;
5483;SDS011;2764;48.794;8.326;2023-08-20T00:13:56;11.63;;;10.20;;
5483;SDS011;2764;48.794;8.326;2023-08-20T00:14:59;14.93;;;11.93;;
5483;SDS011;2764;48.794;8.326;2023-08-20T00:16:06;12.93;;;11.40;;
5483;SDS011;2764;48.794;8.326;2023-08-20T00:17:08;14.10;;;10.63;;
5483;SDS011;2764;48.794;8.326;2023-08-20T00:18:10;13.13;;;11.77;;
5483;SDS011;2764;48.794;8.326;2023-08-20T00:19:13;15.63;;;10.33;;
5483;SDS011;2764;48.794;8.326;2023-08-20T00:20:14;13.43;;;11.30;;
5483;SDS011;2764;48.794;8.326;2023-08-20T00:21:18;27.77;;;11.63;;
5483;SDS011;2764;48.794;8.326;2023-08-20T00:22:21;12.40;;;11.00;;
5483;SDS011;2764;48.794;8.326;2023-08-20T00:23:23;19.60;;;11.57;;
5483;SDS011;2764;48.794;8.326;2023-08-20T00:24:25;15.30;;;11.50;;
5483;SDS011;2764;48.794;8.326;2023-08-20T00:25:26;20.60;;;11.30;;
5483;SDS011;2764;48.794;8.326;2023-08-20T00:26:29;22.53;;;11.30;;
5483;SDS011;2764;48.794;8.326;2023-08-20T00:27:31;17.40;;;11.10;;
5483;SDS011;2764;48.794;8.326;2023-08-20T00:28:33;14.00;;;10.97;;
5483;SDS011;2764;48.794;8.326;2023-08-20T00:29:35;11.80;;;10.60;;
5483;SDS011;2764;48.794;8.326;2023-08-20T00:30:37;14.00;;;11.63;;
5483;SDS011;2764;48.794;8.326;2023-08-20T00:31:39;13.70;;;11.93;;
5483;SDS011;2764;48.794;8.326;2023-08-20T00:32:41;15.00;;;11.53;;
5483;SDS011;2764;48.794;8.326;2023-08-20T00:33:43;13.00;;;11.70;;
5483;SDS011;2764;48.794;8.326;2023-08-20T00:35:01;17.40;;;11.27;;
5483;SDS011;2764;48.794;8.326;2023-08-20T00:36:06;12.40;;;10.93;;
5483;SDS011;2764;48.794;8.326;2023-08-20T00:37:08;19.40;;;12.07;;
5483;SDS011;2764;48.794;8.326;2023-08-20T00:38:10;16.90;;;11.50;;
5483;SDS011;2764;48.794;8.326;2023-08-20T00:39:11;11.90;;;10.73;;
5483;SDS011;2764;48.794;8.326;2023-08-20T00:40:13;12.13;;;11.03;;
5483;SDS011;2764;48.794;8.326;2023-08-20T00:41:14;12.40;;;11.23;;
5483;SDS011;2764;48.794;8.326;2023-08-20T00:42:16;15.80;;;12.13;;
5483;SDS011;2764;48.794;8.326;2023-08-20T00:43:18;11.73;;;10.63;;
5483;SDS011;2764;48.794;8.326;2023-08-20T00:44:20;15.17;;;11.00;;
5483;SDS011;2764;48.794;8.326;2023-08-20T00:45:22;13.00;;;11.50;;
5483;SDS011;2764;48.794;8.326;2023-08-20T00:46:23;13.20;;;11.13;;
5483;SDS011;2764;48.794;8.326;2023-08-20T00:47:25;15.83;;;11.10;;
5483;SDS011;2764;48.794;8.326;2023-08-20T00:48:27;14.73;;;11.47;;
5483;SDS011;2764;48.794;8.326;2023-08-20T00:49:29;13.63;;;11.77;;
5483;SDS011;2764;48.794;8.326;2023-08-20T00:50:31;18.33;;;12.23;;
5483;SDS011;2764;48.794;8.326;2023-08-20T00:51:33;14.00;;;10.80;;
5483;SDS011;2764;48.794;8.326;2023-08-20T00:52:35;18.20;;;12.27;;
5483;SDS011;2764;48.794;8.326;2023-08-20T00:53:37;16.43;;;10.93;;
5483;SDS011;2764;48.794;8.326;2023-08-20T00:54:39;13.43;;;10.90;;
5483;SDS011;2764;48.794;8.326;2023-08-20T00:55:41;12.50;;;10.87;;
5483;SDS011;2764;48.794;8.326;2023-08-20T00:56:43;20.20;;;11.93;;
5483;SDS011;2764;48.794;8.326;2023-08-20T00:57:45;17.07;;;11.40;;
5483;SDS011;2764;48.794;8.326;2023-08-20T00:58:47;12.67;;;10.57;;
5483;SDS011;2764;48.794;8.326;2023-08-20T00:59:49;16.77;;;11.43;;
5483;SDS011;2764;48.794;8.326;2023-08-20T01:00:51;14.80;;;12.37;;
5483;SDS011;2764;48.794;8.326;2023-08-20T01:01:53;11.87;;;10.83;;
5483;SDS011;2764;48.794;8.326;2023-08-20T01:02:54;13.43;;;12.10;;
5483;SDS011;2764;48.794;8.326;2023-08-20T01:03:56;17.20;;;12.43;;
5483;SDS011;2764;48.794;8.326;2023-08-20T01:04:58;13.37;;;11.70;;
5483;SDS011;2764;48.794;8.326;2023-08-20T01:06:12;12.50;;;10.70;;
5483;SDS011;2764;48.794;8.326;2023-08-20T01:08:33;12.47;;;11.17;;
5483;SDS011;2764;48.794;8.326;2023-08-20T01:11:03;14.53;;;11.67;;
5483;SDS011;2764;48.794;8.326;2023-08-20T01:12:06;13.17;;;11.33;;
5483;SDS011;2764;48.794;8.326;2023-08-20T01:13:10;17.10;;;11.33;;
5483;SDS011;2764;48.794;8.326;2023-08-20T01:14:15;18.90;;;11.07;;
5483;SDS011;2764;48.794;8.326;2023-08-20T01:15:17;17.90;;;13.27;;
5483;SDS011;2764;48.794;8.326;2023-08-20T01:16:19;23.63;;;12.30;;
5483;SDS011;2764;48.794;8.326;2023-08-20T01:17:20;19.83;;;11.83;;
5483;SDS011;2764;48.794;8.326;2023-08-20T01:18:23;22.33;;;12.30;;
5483;SDS011;2764;48.794;8.326;2023-08-20T01:19:25;18.50;;;12.00;;
5483;SDS011;2764;48.794;8.326;2023-08-20T01:20:27;18.77;;;12.47;;
5483;SDS011;2764;48.794;8.326;2023-08-20T01:21:39;12.23;;;11.03;;
5483;SDS011;2764;48.794;8.326;2023-08-20T01:27:32;15.63;;;11.23;;
5483;SDS011;2764;48.794;8.326;2023-08-20T01:28:39;14.73;;;11.37;;
5483;SDS011;2764;48.794;8.326;2023-08-20T01:29:41;15.60;;;11.80;;
5483;SDS011;2764;48.794;8.326;2023-08-20T01:30:43;20.90;;;12.07;;
5483;SDS011;2764;48.794;8.326;2023-08-20T01:31:45;16.33;;;12.50;;
5483;SDS011;2764;48.794;8.326;2023-08-20T01:32:48;16.53;;;12.23;;
5483;SDS011;2764;48.794;8.326;2023-08-20T01:33:50;16.80;;;10.67;;
5483;SDS011;2764;48.794;8.326;2023-08-20T01:34:52;17.03;;;11.70;;
5483;SDS011;2764;48.794;8.326;2023-08-20T01:35:55;14.90;;;12.03;;
5483;SDS011;2764;48.794;8.326;2023-08-20T01:36:56;15.30;;;12.30;;
5483;SDS011;2764;48.794;8.326;2023-08-20T01:37:58;14.90;;;12.50;;
5483;SDS011;2764;48.794;8.326;2023-08-20T01:39:02;13.87;;;11.83;;
5483;SDS011;2764;48.794;8.326;2023-08-20T01:40:06;13.20;;;11.90;;
5483;SDS011;2764;48.794;8.326;2023-08-20T01:41:09;17.00;;;12.33;;
5483;SDS011;2764;48.794;8.326;2023-08-20T01:42:11;20.63;;;12.47;;
5483;SDS011;2764;48.794;8.326;2023-08-20T01:43:13;18.90;;;11.90;;
5483;SDS011;2764;48.794;8.326;2023-08-20T01:44:14;13.20;;;11.87;;
5483;SDS011;2764;48.794;8.326;2023-08-20T01:45:16;20.70;;;11.10;;
5483;SDS011;2764;48.794;8.326;2023-08-20T01:46:19;13.70;;;12.30;;
5483;SDS011;2764;48.794;8.326;2023-08-20T01:47:21;12.87;;;11.53;;
5483;SDS011;2764;48.794;8.326;2023-08-20T01:48:23;15.27;;;12.03;;
5483;SDS011;2764;48.794;8.326;2023-08-20T01:49:24;17.57;;;11.90;;
5483;SDS011;2764;48.794;8.326;2023-08-20T01:50:26;12.50;;;10.80;;
5483;SDS011;2764;48.794;8.326;2023-08-20T01:51:29;13.00;;;11.80;;
5483;SDS011;2764;48.794;8.326;2023-08-20T01:52:30;16.90;;;11.83;;
5483;SDS011;2764;48.794;8.326;2023-08-20T01:53:32;12.67;;;11.47;;
5483;SDS011;2764;48.794;8.326;2023-08-20T01:54:33;12.30;;;11.10;;
5483;SDS011;2764;48.794;8.326;2023-08-20T01:55:35;14.53;;;13.03;;
5483;SDS011;2764;48.794;8.326;2023-08-20T01:56:37;13.90;;;12.20;;
5483;SDS011;2764;48.794;8.326;2023-08-20T01:57:38;14.20;;;11.73;;
5483;SDS011;2764;48.794;8.326;2023-08-20T01:58:41;17.63;;;12.07;;
5483;SDS011;2764;48.794;8.326;2023-08-20T01:59:42;14.30;;;12.90;;
5483;SDS011;2764;48.794;8.326;2023-08-20T02:00:45;13.37;;;11.97;;
5483;SDS011;2764;48.794;8.326;2023-08-20T02:01:46;18.57;;;12.60;;
5483;SDS011;2764;48.794;8.326;2023-08-20T02:02:48;18.53;;;13.20;;
5483;SDS011;2764;48.794;8.326;2023-08-20T02:03:50;20.83;;;12.50;;
5483;SDS011;2764;48.794;8.326;2023-08-20T02:04:52;18.53;;;13.07;;
5483;SDS011;2764;48.794;8.326;2023-08-20T02:05:53;13.63;;;12.03;;
5483;SDS011;2764;48.794;8.326;2023-08-20T02:06:55;13.70;;;12.33;;
5483;SDS011;2764;48.794;8.326;2023-08-20T02:07:56;18.00;;;12.50;;
5483;SDS011;2764;48.794;8.326;2023-08-20T02:08:58;16.23;;;13.20;;
5483;SDS011;2764;48.794;8.326;2023-08-20T02:09:59;14.87;;;12.37;;
5483;SDS011;2764;48.794;8.326;2023-08-20T02:11:02;15.40;;;12.17;;
5483;SDS011;2764;48.794;8.326;2023-08-20T02:12:04;13.70;;;12.40;;
5483;SDS011;2764;48.794;8.326;2023-08-20T02:13:06;14.97;;;12.77;;
5483;SDS011;2764;48.794;8.326;2023-08-20T02:14:08;14.77;;;13.13;;
5483;SDS011;2764;48.794;8.326;2023-08-20T02:15:10;13.73;;;12.33;;
5483;SDS011;2764;48.794;8.326;2023-08-20T02:16:15;15.13;;;13.63;;
5483;SDS011;2764;48.794;8.326;2023-08-20T02:17:17;23.27;;;13.03;;
5483;SDS011;2764;48.794;8.326;2023-08-20T02:18:19;14.83;;;12.80;;
5483;SDS011;2764;48.794;8.326;2023-08-20T02:19:21;18.60;;;14.93;;
5483;SDS011;2764;48.794;8.326;2023-08-20T02:20:22;19.37;;;13.43;;
5483;SDS011;2764;48.794;8.326;2023-08-20T02:21:24;15.73;;;14.03;;
5483;SDS011;2764;48.794;8.326;2023-08-20T02:22:25;22.50;;;14.47;;
5483;SDS011;2764;48.794;8.326;2023-08-20T02:23:30;15.90;;;12.47;;
5483;SDS011;2764;48.794;8.326;2023-08-20T02:24:32;31.67;;;14.40;;
5483;SDS011;2764;48.794;8.326;2023-08-20T02:25:34;19.30;;;14.10;;
5483;SDS011;2764;48.794;8.326;2023-08-20T02:26:36;21.80;;;13.83;;
5483;SDS011;2764;48.794;8.326;2023-08-20T02:27:38;15.60;;;13.90;;
5483;SDS011;2764;48.794;8.326;2023-08-20T02:28:40;15.07;;;12.23;;
5483;SDS011;2764;48.794;8.326;2023-08-20T02:29:42;17.20;;;13.77;;
5483;SDS011;2764;48.794;8.326;2023-08-20T02:30:45;15.83;;;13.00;;
5483;SDS011;2764;48.794;8.326;2023-08-20T02:31:47;18.70;;;13.30;;
5483;SDS011;2764;48.794;8.326;2023-08-20T02:32:48;16.67;;;13.33;;
5483;SDS011;2764;48.794;8.326;2023-08-20T02:33:50;13.93;;;12.57;;
5483;SDS011;2764;48.794;8.326;2023-08-20T02:34:52;18.27;;;12.13;;
5483;SDS011;2764;48.794;8.326;2023-08-20T02:35:55;14.17;;;12.83;;
5483;SDS011;2764;48.794;8.326;2023-08-20T02:36:56;18.73;;;12.40;;
5483;SDS011;2764;48.794;8.326;2023-08-20T02:37:58;14.43;;;12.20;;
5483;SDS011;2764;48.794;8.326;2023-08-20T02:39:00;14.70;;;13.03;;
5483;SDS011;2764;48.794;8.326;2023-08-20T02:40:02;13.03;;;11.83;;
5483;SDS011;2764;48.794;8.326;2023-08-20T02:41:04;14.27;;;12.40;;
5483;SDS011;2764;48.794;8.326;2023-08-20T02:42:06;14.43;;;12.27;;
5483;SDS011;2764;48.794;8.326;2023-08-20T02:43:08;12.73;;;11.47;;
5483;SDS011;2764;48.794;8.326;2023-08-20T02:44:09;20.67;;;12.40;;
5483;SDS011;2764;48.794;8.326;2023-08-20T02:45:11;16.17;;;12.07;;
5483;SDS011;2764;48.794;8.326;2023-08-20T02:46:12;13.13;;;12.00;;
5483;SDS011;2764;48.794;8.326;2023-08-20T02:47:15;14.60;;;11.67;;
5483;SDS011;2764;48.794;8.326;2023-08-20T02:48:17;13.63;;;11.53;;
5483;SDS011;2764;48.794;8.326;2023-08-20T02:49:19;17.63;;;11.00;;
5483;SDS011;2764;48.794;8.326;2023-08-20T02:50:20;13.47;;;11.83;;
5483;SDS011;2764;48.794;8.326;2023-08-20T02:51:22;13.63;;;11.10;;
5483;SDS011;2764;48.794;8.326;2023-08-20T02:52:23;12.63;;;11.20;;
5483;SDS011;2764;48.794;8.326;2023-08-20T02:53:25;13.33;;;11.70;;
5483;SDS011;2764;48.794;8.326;2023-08-20T02:54:26;12.57;;;11.37;;
5483;SDS011;2764;48.794;8.326;2023-08-20T02:55:30;21.70;;;11.33;;
5483;SDS011;2764;48.794;8.326;2023-08-20T02:56:32;18.20;;;13.00;;
5483;SDS011;2764;48.794;8.326;2023-08-20T02:57:34;15.03;;;10.70;;
5483;SDS011;2764;48.794;8.326;2023-08-20T02:58:37;11.80;;;10.80;;
5483;SDS011;2764;48.794;8.326;2023-08-20T02:59:39;14.57;;;10.63;;
5483;SDS011;2764;48.794;8.326;2023-08-20T03:00:41;12.67;;;11.33;;
5483;SDS011;2764;48.794;8.326;2023-08-20T03:01:43;22.80;;;11.00;;
5483;SDS011;2764;48.794;8.326;2023-08-20T03:02:45;15.90;;;11.50;;
5483;SDS011;2764;48.794;8.326;2023-08-20T03:03:46;17.93;;;11.70;;
5483;SDS011;2764;48.794;8.326;2023-08-20T03:04:48;15.50;;;11.30;;
5483;SDS011;2764;48.794;8.326;2023-08-20T03:05:50;20.40;;;11.83;;
5483;SDS011;2764;48.794;8.326;2023-08-20T03:06:52;19.77;;;11.43;;
5483;SDS011;2764;48.794;8.326;2023-08-20T03:07:53;19.47;;;11.13;;
5483;SDS011;2764;48.794;8.326;2023-08-20T03:08:55;14.60;;;12.10;;
5483;SDS011;2764;48.794;8.326;2023-08-20T03:09:56;17.60;;;12.07;;
5483;SDS011;2764;48.794;8.326;2023-08-20T03:10:58;11.93;;;10.63;;
5483;SDS011;2764;48.794;8.326;2023-08-20T03:11:59;12.77;;;11.47;;
5483;SDS011;2764;48.794;8.326;2023-08-20T03:13:01;12.13;;;10.93;;
5483;SDS011;2764;48.794;8.326;2023-08-20T03:14:03;12.30;;;11.20;;
5483;SDS011;2764;48.794;8.326;2023-08-20T03:15:06;13.50;;;12.10;;
5483;SDS011;2764;48.794;8.326;2023-08-20T03:16:08;13.40;;;12.20;;
5483;SDS011;2764;48.794;8.326;2023-08-20T03:17:10;12.33;;;11.23;;
5483;SDS011;2764;48.794;8.326;2023-08-20T03:18:11;12.33;;;11.10;;
5483;SDS011;2764;48.794;8.326;2023-08-20T03:19:14;12.93;;;11.37;;
5483;SDS011;2764;48.794;8.326;2023-08-20T03:20:16;15.33;;;11.63;;
5483;SDS011;2764;48.794;8.326;2023-08-20T03:21:18;15.50;;;12.13;;
5483;SDS011;2764;48.794;8.326;2023-08-20T03:22:19;12.70;;;11.40;;
5483;SDS011;2764;48.794;8.326;2023-08-20T03:23:21;15.77;;;12.97;;
5483;SDS011;2764;48.794;8.326;2023-08-20T03:24:23;14.13;;;12.63;;
5483;SDS011;2764;48.794;8.326;2023-08-20T03:25:25;16.90;;;11.23;;
5483;SDS011;2764;48.794;8.326;2023-08-20T03:26:28;13.60;;;11.77;;
5483;SDS011;2764;48.794;8.326;2023-08-20T03:27:29;16.20;;;12.23;;
5483;SDS011;2764;48.794;8.326;2023-08-20T03:28:31;13.17;;;11.83;;
5483;SDS011;2764;48.794;8.326;2023-08-20T03:29:33;13.57;;;12.30;;
5483;SDS011;2764;48.794;8.326;2023-08-20T03:30:36;14.13;;;12.60;;
5483;SDS011;2764;48.794;8.326;2023-08-20T03:31:37;13.67;;;12.30;;
5483;SDS011;2764;48.794;8.326;2023-08-20T03:32:39;13.20;;;11.80;;
5483;SDS011;2764;48.794;8.326;2023-08-20T03:33:40;13.10;;;11.90;;
5483;SDS011;2764;48.794;8.326;2023-08-20T03:34:42;20.00;;;13.50;;
5483;SDS011;2764;48.794;8.326;2023-08-20T03:35:45;13.30;;;11.60;;
5483;SDS011;2764;48.794;8.326;2023-08-20T03:36:46;17.53;;;14.03;;
5483;SDS011;2764;48.794;8.326;2023-08-20T03:37:48;16.80;;;12.20;;
5483;SDS011;2764;48.794;8.326;2023-08-20T03:38:49;13.13;;;12.00;;
5483;SDS011;2764;48.794;8.326;2023-08-20T03:39:51;14.37;;;12.87;;
5483;SDS011;2764;48.794;8.326;2023-08-20T03:40:54;15.10;;;13.07;;
5483;SDS011;2764;48.794;8.326;2023-08-20T03:41:56;13.67;;;12.23;;
5483;SDS011;2764;48.794;8.326;2023-08-20T03:42:58;18.43;;;12.90;;
5483;SDS011;2764;48.794;8.326;2023-08-20T03:43:59;17.43;;;12.27;;
5483;SDS011;2764;48.794;8.326;2023-08-20T03:45:01;18.80;;;13.87;;
5483;SDS011;2764;48.794;8.326;2023-08-20T03:46:02;15.40;;;13.80;;
5483;SDS011;2764;48.794;8.326;2023-08-20T03:47:04;15.70;;;13.43;;
5483;SDS011;2764;48.794;8.326;2023-08-20T03:48:10;13.93;;;12.63;;
5483;SDS011;2764;48.794;8.326;2023-08-20T03:49:11;16.53;;;13.87;;
5483;SDS011;2764;48.794;8.326;2023-08-20T03:50:13;15.73;;;13.60;;
5483;SDS011;2764;48.794;8.326;2023-08-20T03:51:14;16.20;;;12.90;;
5483;SDS011;2764;48.794;8.326;2023-08-20T03:52:16;13.17;;;11.87;;
5483;SDS011;2764;48.794;8.326;2023-08-20T03:53:17;14.20;;;12.63;;
5483;SDS011;2764;48.794;8.326;2023-08-20T03:54:19;14.03;;;12.40;;
5483;SDS011;2764;48.794;8.326;2023-08-20T03:55:21;13.47;;;11.87;;
5483;SDS011;2764;48.794;8.326;2023-08-20T03:56:23;19.17;;;13.10;;
5483;SDS011;2764;48.794;8.326;2023-08-20T03:57:24;16.93;;;13.93;;
5483;SDS011;2764;48.794;8.326;2023-08-20T03:58:26;14.30;;;13.03;;
5483;SDS011;2764;48.794;8.326;2023-08-20T03:59:27;15.00;;;13.70;;
5483;SDS011;2764;48.794;8.326;2023-08-20T04:00:29;17.93;;;13.73;;
5483;SDS011;2764;48.794;8.326;2023-08-20T04:01:31;14.43;;;12.90;;
5483;SDS011;2764;48.794;8.326;2023-08-20T04:02:32;18.43;;;12.97;;
5483;SDS011;2764;48.794;8.326;2023-08-20T04:03:35;16.23;;;14.27;;
5483;SDS011;2764;48.794;8.326;2023-08-20T04:04:37;18.23;;;13.80;;
5483;SDS011;2764;48.794;8.326;2023-08-20T04:05:39;18.50;;;13.80;;
5483;SDS011;2764;48.794;8.326;2023-08-20T04:06:40;24.17;;;14.97;;
5483;SDS011;2764;48.794;8.326;2023-08-20T04:07:42;13.90;;;12.50;;
5483;SDS011;2764;48.794;8.326;2023-08-20T04:08:44;15.30;;;12.70;;
5483;SDS011;2764;48.794;8.326;2023-08-20T04:09:45;15.33;;;13.63;;
5483;SDS011;2764;48.794;8.326;2023-08-20T04:10:47;17.40;;;14.67;;
5483;SDS011;2764;48.794;8.326;2023-08-20T04:11:48;15.17;;;13.77;;
5483;SDS011;2764;48.794;8.326;2023-08-20T04:12:50;16.40;;;13.93;;
5483;SDS011;2764;48.794;8.326;2023-08-20T04:13:52;18.97;;;13.93;;
5483;SDS011;2764;48.794;8.326;2023-08-20T04:14:53;16.57;;;14.63;;
5483;SDS011;2764;48.794;8.326;2023-08-20T04:15:55;15.97;;;14.40;;
5483;SDS011;2764;48.794;8.326;2023-08-20T04:16:56;17.70;;;13.60;;
5483;SDS011;2764;48.794;8.326;2023-08-20T04:17:58;14.00;;;12.70;;
5483;SDS011;2764;48.794;8.326;2023-08-20T04:19:00;14.47;;;12.93;;
5483;SDS011;2764;48.794;8.326;2023-08-20T04:20:01;13.73;;;12.07;;
5483;SDS011;2764;48.794;8.326;2023-08-20T04:21:04;12.10;;;10.90;;
5483;SDS011;2764;48.794;8.326;2023-08-20T04:22:05;13.00;;;11.80;;
5483;SDS011;2764;48.794;8.326;2023-08-20T04:23:07;17.23;;;11.83;;
5483;SDS011;2764;48.794;8.326;2023-08-20T04:24:09;19.87;;;13.53;;
5483;SDS011;2764;48.794;8.326;2023-08-20T04:25:11;13.70;;;12.37;;
5483;SDS011;2764;48.794;8.326;2023-08-20T04:26:13;16.80;;;13.70;;
5483;SDS011;2764;48.794;8.326;2023-08-20T04:27:14;17.40;;;13.77;;
5483;SDS011;2764;48.794;8.326;2023-08-20T04:28:16;25.47;;;13.40;;
5483;SDS011;2764;48.794;8.326;2023-08-20T04:29:18;18.83;;;13.10;;
5483;SDS011;2764;48.794;8.326;2023-08-20T04:30:19;25.87;;;13.73;;
5483;SDS011;2764;48.794;8.326;2023-08-20T04:31:21;14.97;;;13.27;;
5483;SDS011;2764;48.794;8.326;2023-08-20T04:32:23;21.03;;;13.10;;
5483;SDS011;2764;48.794;8.326;2023-08-20T04:33:25;22.83;;;13.27;;
5483;SDS011;2764;48.794;8.326;2023-08-20T04:34:28;13.33;;;11.93;;
5483;SDS011;2764;48.794;8.326;2023-08-20T04:35:30;19.23;;;12.63;;
5483;SDS011;2764;48.794;8.326;2023-08-20T04:36:32;18.33;;;12.67;;
5483;SDS011;2764;48.794;8.326;2023-08-20T04:37:34;14.07;;;12.53;;
5483;SDS011;2764;48.794;8.326;2023-08-20T04:38:36;14.87;;;11.47;;
5483;SDS011;2764;48.794;8.326;2023-08-20T04:39:38;18.63;;;12.10;;
5483;SDS011;2764;48.794;8.326;2023-08-20T04:40:39;15.97;;;12.13;;
5483;SDS011;2764;48.794;8.326;2023-08-20T04:41:41;18.60;;;12.43;;
5483;SDS011;2764;48.794;8.326;2023-08-20T04:42:42;15.63;;;12.10;;
5483;SDS011;2764;48.794;8.326;2023-08-20T04:43:44;15.53;;;12.27;;
5483;SDS011;2764;48.794;8.326;2023-08-20T04:44:45;12.20;;;10.80;;
5483;SDS011;2764;48.794;8.326;2023-08-20T04:45:47;18.23;;;11.40;;
5483;SDS011;2764;48.794;8.326;2023-08-20T04:46:49;15.70;;;12.97;;
5483;SDS011;2764;48.794;8.326;2023-08-20T04:47:50;13.33;;;11.93;;
5483;SDS011;2764;48.794;8.326;2023-08-20T04:48:52;15.37;;;12.10;;
5483;SDS011;2764;48.794;8.326;2023-08-20T04:49:53;13.90;;;12.60;;
5483;SDS011;2764;48.794;8.326;2023-08-20T04:50:55;14.33;;;11.60;;
5483;SDS011;2764;48.794;8.326;2023-08-20T04:51:57;16.63;;;12.23;;
5483;SDS011;2764;48.794;8.326;2023-08-20T04:52:58;12.67;;;11.30;;
5483;SDS011;2764;48.794;8.326;2023-08-20T04:54:01;21.40;;;12.13;;
5483;SDS011;2764;48.794;8.326;2023-08-20T04:55:02;12.57;;;11.23;;
5483;SDS011;2764;48.794;8.326;2023-08-20T04:56:04;14.33;;;11.27;;
5483;SDS011;2764;48.794;8.326;2023-08-20T04:57:05;18.23;;;11.80;;
5483;SDS011;2764;48.794;8.326;2023-08-20T04:58:07;11.77;;;10.63;;
5483;SDS011;2764;48.794;8.326;2023-08-20T04:59:09;16.53;;;11.60;;
5483;SDS011;2764;48.794;8.326;2023-08-20T05:00:11;12.30;;;10.73;;
5483;SDS011;2764;48.794;8.326;2023-08-20T05:01:13;18.00;;;10.90;;
5483;SDS011;2764;48.794;8.326;2023-08-20T05:02:15;12.47;;;11.10;;
5483;SDS011;2764;48.794;8.326;2023-08-20T05:03:17;14.03;;;12.27;;
5483;SDS011;2764;48.794;8.326;2023-08-20T05:04:19;12.93;;;11.30;;
5483;SDS011;2764;48.794;8.326;2023-08-20T05:05:20;14.90;;;11.77;;
5483;SDS011;2764;48.794;8.326;2023-08-20T05:06:22;13.10;;;11.70;;
5483;SDS011;2764;48.794;8.326;2023-08-20T05:07:23;11.90;;;10.90;;
5483;SDS011;2764;48.794;8.326;2023-08-20T05:08:25;11.77;;;10.60;;
5483;SDS011;2764;48.794;8.326;2023-08-20T05:09:27;12.33;;;11.27;;
5483;SDS011;2764;48.794;8.326;2023-08-20T05:10:28;12.70;;;9.67;;
5483;SDS011;2764;48.794;8.326;2023-08-20T05:11:30;18.73;;;11.33;;
5483;SDS011;2764;48.794;8.326;2023-08-20T05:12:34;12.13;;;10.83;;
5483;SDS011;2764;48.794;8.326;2023-08-20T05:13:39;17.50;;;10.80;;
5483;SDS011;2764;48.794;8.326;2023-08-20T05:14:41;11.87;;;10.80;;
5483;SDS011;2764;48.794;8.326;2023-08-20T05:15:42;18.30;;;11.90;;
5483;SDS011;2764;48.794;8.326;2023-08-20T05:16:44;13.20;;;11.80;;
5483;SDS011;2764;48.794;8.326;2023-08-20T05:17:45;12.20;;;11.10;;
5483;SDS011;2764;48.794;8.326;2023-08-20T05:18:47;16.83;;;11.20;;
5483;SDS011;2764;48.794;8.326;2023-08-20T05:19:49;15.60;;;10.80;;
5483;SDS011;2764;48.794;8.326;2023-08-20T05:20:50;16.33;;;11.43;;
5483;SDS011;2764;48.794;8.326;2023-08-20T05:21:52;13.30;;;11.17;;
5483;SDS011;2764;48.794;8.326;2023-08-20T05:22:57;17.30;;;12.00;;
5483;SDS011;2764;48.794;8.326;2023-08-20T05:23:59;10.70;;;9.70;;
5483;SDS011;2764;48.794;8.326;2023-08-20T05:25:00;14.47;;;10.03;;
5483;SDS011;2764;48.794;8.326;2023-08-20T05:26:02;14.37;;;10.80;;
5483;SDS011;2764;48.794;8.326;2023-08-20T05:27:13;12.13;;;10.23;;
5483;SDS011;2764;48.794;8.326;2023-08-20T05:28:20;10.80;;;9.80;;
5483;SDS011;2764;48.794;8.326;2023-08-20T05:29:22;11.37;;;10.20;;
5483;SDS011;2764;48.794;8.326;2023-08-20T05:30:24;13.57;;;10.70;;
5483;SDS011;2764;48.794;8.326;2023-08-20T05:31:25;11.07;;;9.87;;
5483;SDS011;2764;48.794;8.326;2023-08-20T05:32:27;13.90;;;9.83;;
5483;SDS011;2764;48.794;8.326;2023-08-20T05:33:29;14.63;;;10.03;;
5483;SDS011;2764;48.794;8.326;2023-08-20T05:34:30;10.40;;;9.50;;
5483;SDS011;2764;48.794;8.326;2023-08-20T05:35:32;11.70;;;9.00;;
5483;SDS011;2764;48.794;8.326;2023-08-20T05:36:33;11.97;;;9.50;;
5483;SDS011;2764;48.794;8.326;2023-08-20T05:37:35;11.13;;;9.53;;
5483;SDS011;2764;48.794;8.326;2023-08-20T05:38:36;12.33;;;9.73;;
5483;SDS011;2764;48.794;8.326;2023-08-20T05:39:40;10.63;;;9.57;;
5483;SDS011;2764;48.794;8.326;2023-08-20T05:40:42;11.27;;;8.97;;
5483;SDS011;2764;48.794;8.326;2023-08-20T05:41:43;11.73;;;9.33;;
5483;SDS011;2764;48.794;8.326;2023-08-20T05:42:45;12.70;;;9.23;;
5483;SDS011;2764;48.794;8.326;2023-08-20T05:43:47;15.47;;;10.17;;
5483;SDS011;2764;48.794;8.326;2023-08-20T05:44:48;16.53;;;9.10;;
5483;SDS011;2764;48.794;8.326;2023-08-20T05:45:50;11.93;;;9.70;;
5483;SDS011;2764;48.794;8.326;2023-08-20T05:46:52;13.83;;;10.13;;
5483;SDS011;2764;48.794;8.326;2023-08-20T05:47:53;10.33;;;9.37;;
5483;SDS011;2764;48.794;8.326;2023-08-20T05:48:55;12.67;;;8.43;;
5483;SDS011;2764;48.794;8.326;2023-08-20T05:49:56;9.43;;;8.43;;
5483;SDS011;2764;48.794;8.326;2023-08-20T05:50:58;10.93;;;8.13;;
5483;SDS011;2764;48.794;8.326;2023-08-20T05:52:00;10.63;;;9.30;;
5483;SDS011;2764;48.794;8.326;2023-08-20T05:53:02;9.07;;;8.07;;
5483;SDS011;2764;48.794;8.326;2023-08-20T05:54:03;17.97;;;8.60;;
5483;SDS011;2764;48.794;8.326;2023-08-20T05:55:05;11.03;;;8.50;;
5483;SDS011;2764;48.794;8.326;2023-08-20T05:56:07;11.40;;;8.77;;
5483;SDS011;2764;48.794;8.326;2023-08-20T05:57:09;13.23;;;8.77;;
5483;SDS011;2764;48.794;8.326;2023-08-20T05:58:11;8.87;;;8.00;;
5483;SDS011;2764;48.794;8.326;2023-08-20T05:59:12;16.03;;;8.77;;
5483;SDS011;2764;48.794;8.326;2023-08-20T06:00:14;11.60;;;9.20;;
5483;SDS011;2764;48.794;8.326;2023-08-20T06:01:17;13.10;;;9.50;;
5483;SDS011;2764;48.794;8.326;2023-08-20T06:02:18;21.03;;;10.23;;
5483;SDS011;2764;48.794;8.326;2023-08-20T06:03:20;20.70;;;9.13;;
5483;SDS011;2764;48.794;8.326;2023-08-20T06:04:22;15.60;;;9.17;;
5483;SDS011;2764;48.794;8.326;2023-08-20T06:05:23;11.03;;;8.83;;
5483;SDS011;2764;48.794;8.326;2023-08-20T06:06:25;10.30;;;8.53;;
5483;SDS011;2764;48.794;8.326;2023-08-20T06:07:27;15.83;;;9.43;;
5483;SDS011;2764;48.794;8.326;2023-08-20T06:08:29;10.87;;;9.00;;
5483;SDS011;2764;48.794;8.326;2023-08-20T06:09:30;9.63;;;8.80;;
5483;SDS011;2764;48.794;8.326;2023-08-20T06:10:32;12.80;;;9.13;;
5483;SDS011;2764;48.794;8.326;2023-08-20T06:11:34;11.17;;;8.63;;
5483;SDS011;2764;48.794;8.326;2023-08-20T06:12:35;13.00;;;8.80;;
5483;SDS011;2764;48.794;8.326;2023-08-20T06:13:37;11.80;;;9.10;;
5483;SDS011;2764;48.794;8.326;2023-08-20T06:14:40;13.60;;;9.03;;
5483;SDS011;2764;48.794;8.326;2023-08-20T06:15:42;7.57;;;6.83;;
5483;SDS011;2764;48.794;8.326;2023-08-20T06:16:43;9.33;;;8.43;;
5483;SDS011;2764;48.794;8.326;2023-08-20T06:17:45;14.13;;;8.90;;
5483;SDS011;2764;48.794;8.326;2023-08-20T06:18:47;12.33;;;9.40;;
5483;SDS011;2764;48.794;8.326;2023-08-20T06:19:50;11.07;;;8.87;;
5483;SDS011;2764;48.794;8.326;2023-08-20T06:20:52;13.83;;;7.93;;
5483;SDS011;2764;48.794;8.326;2023-08-20T06:21:54;8.97;;;8.00;;
5483;SDS011;2764;48.794;8.326;2023-08-20T06:22:55;13.57;;;8.77;;